createdAt,value
2023-05-19T00:00:23.847Z,8.10
2023-05-19T00:10:26.126Z,8.00
2023-05-19T00:20:28.110Z,7.90
2023-05-19T00:30:30.956Z,7.90
2023-05-19T00:40:35.881Z,7.90
2023-05-19T00:50:38.004Z,7.80
2023-05-19T01:00:40.759Z,7.90
2023-05-19T01:10:42.730Z,7.80
2023-05-19T01:21:17.728Z,7.80
2023-05-19T01:31:23.316Z,7.70
2023-05-19T01:41:26.446Z,7.70
2023-05-19T01:51:28.331Z,7.70
2023-05-19T02:01:53.757Z,7.70
2023-05-19T02:12:01.919Z,7.60
2023-05-19T02:22:03.967Z,7.60
2023-05-19T02:32:06.749Z,7.60
2023-05-19T02:42:08.658Z,7.60
2023-05-19T02:52:10.983Z,7.60
2023-05-19T03:02:13.495Z,7.60
2023-05-19T03:12:15.456Z,7.60
2023-05-19T03:22:17.622Z,7.70
2023-05-19T03:32:19.777Z,7.70
2023-05-19T03:42:22.436Z,7.80
2023-05-19T03:52:24.851Z,7.80
2023-05-19T04:02:32.743Z,7.80
2023-05-19T04:12:34.848Z,8.00
2023-05-19T04:22:36.810Z,8.00
2023-05-19T04:32:38.776Z,8.10
2023-05-19T04:42:41.553Z,8.40
2023-05-19T04:52:45.102Z,8.30
2023-05-19T05:02:47.061Z,8.50
2023-05-19T05:12:52.914Z,8.50
2023-05-19T05:22:55.007Z,8.60
2023-05-19T05:32:58.245Z,8.90
2023-05-19T05:43:07.646Z,9.20
2023-05-19T05:53:19.094Z,9.10
2023-05-19T06:03:23.254Z,9.30
2023-05-19T06:13:26.630Z,9.30
2023-05-19T06:23:31.321Z,9.70
2023-05-19T06:33:33.491Z,9.60
2023-05-19T06:43:35.527Z,9.70
2023-05-19T06:53:38.600Z,9.80
2023-05-19T07:03:43.854Z,10.00
2023-05-19T07:13:47.413Z,9.90
2023-05-19T07:23:56.368Z,10.00
2023-05-19T07:33:58.976Z,10.00
2023-05-19T07:44:00.918Z,10.00
2023-05-19T07:54:02.823Z,10.30
2023-05-19T08:04:05.192Z,10.40
2023-05-19T08:14:07.263Z,10.70
2023-05-19T08:24:09.284Z,11.00
2023-05-19T08:34:11.128Z,10.80
2023-05-19T08:44:13.091Z,11.00
2023-05-19T08:54:16.295Z,11.10
2023-05-19T09:04:18.430Z,11.40
2023-05-19T09:14:20.367Z,11.40
2023-05-19T09:24:26.190Z,11.50
2023-05-19T09:34:28.100Z,11.80
2023-05-19T09:44:30.108Z,12.10
2023-05-19T09:54:34.453Z,12.00
2023-05-19T10:04:36.919Z,11.70
2023-05-19T10:14:39.011Z,12.10
2023-05-19T10:24:41.177Z,12.00
2023-05-19T10:35:12.720Z,12.20
2023-05-19T10:45:24.230Z,12.30
2023-05-19T10:55:52.429Z,12.20
2023-05-19T11:06:30.654Z,12.30
2023-05-19T11:16:32.850Z,12.60
2023-05-19T11:26:42.171Z,12.80
2023-05-19T11:36:44.886Z,12.70
2023-05-19T11:46:47.026Z,12.90
2023-05-19T11:56:49.504Z,13.00
2023-05-19T12:06:51.590Z,12.80
2023-05-19T12:16:53.627Z,13.30
2023-05-19T12:27:06.301Z,13.20
2023-05-19T12:37:10.890Z,13.30
2023-05-19T12:47:13.772Z,13.60
2023-05-19T12:57:20.722Z,13.60
2023-05-19T13:07:23.154Z,13.70
2023-05-19T13:17:26.099Z,13.80
2023-05-19T13:27:28.014Z,13.80
2023-05-19T13:37:30.107Z,13.80
2023-05-19T13:47:32.137Z,13.80
2023-05-19T13:57:34.748Z,14.50
2023-05-19T14:07:36.723Z,14.00
2023-05-19T14:17:39.354Z,14.20
2023-05-19T14:27:41.308Z,14.50
2023-05-19T14:37:43.238Z,14.30
2023-05-19T14:47:46.177Z,14.40
2023-05-19T14:57:49.007Z,14.40
2023-05-19T15:07:51.252Z,14.50
2023-05-19T15:17:53.229Z,14.50
2023-05-19T15:27:55.164Z,14.40
2023-05-19T15:37:57.096Z,14.10
2023-05-19T15:47:59.091Z,14.10
2023-05-19T15:58:01.028Z,14.10
2023-05-19T16:08:02.945Z,13.90
2023-05-19T16:18:04.898Z,13.90
2023-05-19T16:28:06.881Z,13.90
2023-05-19T16:38:08.975Z,13.90
2023-05-19T16:48:10.971Z,13.70
2023-05-19T16:58:12.838Z,13.50
2023-05-19T17:08:14.815Z,13.30
2023-05-19T17:18:16.797Z,13.10
2023-05-19T17:28:18.882Z,13.00
2023-05-19T17:38:20.956Z,12.90
2023-05-19T17:48:22.896Z,12.80
2023-05-19T17:58:25.306Z,12.80
2023-05-19T18:08:28.557Z,12.70
2023-05-19T18:18:30.451Z,12.80
2023-05-19T18:28:32.326Z,12.80
2023-05-19T18:38:34.272Z,12.70
2023-05-19T18:48:36.254Z,12.60
2023-05-19T18:58:38.566Z,12.40
2023-05-19T19:08:40.555Z,12.40
2023-05-19T19:18:42.936Z,12.20
2023-05-19T19:28:44.827Z,12.10
2023-05-19T19:38:46.707Z,11.90
2023-05-19T19:48:48.597Z,11.90
2023-05-19T19:58:50.919Z,11.80
2023-05-19T20:08:52.896Z,11.70
2023-05-19T20:18:54.819Z,11.50
2023-05-19T20:28:56.801Z,11.40
2023-05-19T20:38:58.603Z,11.20
2023-05-19T20:49:00.468Z,11.10
2023-05-19T20:59:02.305Z,11.20
2023-05-19T21:09:06.068Z,11.10
2023-05-19T21:19:07.938Z,11.00
2023-05-19T21:29:10.425Z,10.90
2023-05-19T21:39:12.339Z,11.00
2023-05-19T21:49:14.276Z,10.90
2023-05-19T21:59:16.194Z,10.90
2023-05-19T22:09:18.159Z,10.90
2023-05-19T22:19:20.300Z,10.80
2023-05-19T22:29:22.257Z,10.80
2023-05-19T22:39:24.153Z,10.80
2023-05-19T22:49:26.095Z,10.70
2023-05-19T22:59:28.070Z,10.70
2023-05-19T23:09:29.994Z,10.70
2023-05-19T23:19:32.001Z,10.70
2023-05-19T23:29:33.915Z,10.70
2023-05-19T23:39:35.811Z,10.60
2023-05-19T23:49:38.214Z,10.60
2023-05-19T23:59:40.146Z,10.50
